17:29
Airports
Links
Donate
Help keep this website running!
PayPal
Bitcoin
METAR
VIDP 211700Z 12009KT 4000 BR SCT040 BKN100 29/25 Q1005 NOSIG
Current Weather Conditions at VIDP
IFR 17:00:00 21-09-17
Altimeter:29.68 hg
Temp:29.0°c 84°f
Dew point:25.0°c 77°f
Wind:9 knots, 10.4 mph, 5 m/s, from 120°
Visibility:2.49 statute miles
10000(BKN) Broken
4000(SCT) Scattered
No significant weather changes expected within 2 hours.
Past METAR reports
IFR 16:30:00 21-09-17
Altimeter:29.68 hg
Temp:29.0°c 84°f
Dew point:25.0°c 77°f
Wind:9 knots, 10.4 mph, 5 m/s, from 130°
Visibility:2.49 statute miles
10000(BKN) Broken
4000(SCT) Scattered
No significant weather changes expected within 2 hours.
VIDP 211630Z 13009KT 4000 BR SCT040 BKN100 29/25 Q1005 NOSIG
IFR 16:00:00 21-09-17
Altimeter:29.68 hg
Temp:29.0°c 84°f
Dew point:24.0°c 75°f
Wind:10 knots, 11.5 mph, 5 m/s, from 120°
Visibility:2.49 statute miles
10000(BKN) Broken
4000(SCT) Scattered
No significant weather changes expected within 2 hours.
VIDP 211600Z 12010KT 4000 HZ SCT040 BKN100 29/24 Q1005 NOSIG
IFR 15:30:00 21-09-17
Altimeter:29.65 hg
Temp:30.0°c 86°f
Dew point:24.0°c 75°f
Wind:8 knots, 9.2 mph, 4 m/s, from 140°
Visibility:2.49 statute miles
10000(BKN) Broken
4000(SCT) Scattered
No significant weather changes expected within 2 hours.
VIDP 211530Z 14008KT 4000 HZ SCT040 BKN100 30/24 Q1004 NOSIG
IFR 15:00:00 21-09-17
Altimeter:29.65 hg
Temp:30.0°c 86°f
Dew point:24.0°c 75°f
Wind:6 knots, 6.9 mph, 3 m/s, from 130°
Visibility:2.49 statute miles
10000(BKN) Broken
4000(SCT) Scattered
No significant weather changes expected within 2 hours.
VIDP 211500Z 13006KT 4000 HZ SCT040 BKN100 30/24 Q1004 NOSIG
IFR 14:30:00 21-09-17
Altimeter:29.65 hg
Temp:30.0°c 86°f
Dew point:24.0°c 75°f
Wind:6 knots, 6.9 mph, 3 m/s, from 130°
Visibility:2.49 statute miles
10000(BKN) Broken
4000(SCT) Scattered
No significant weather changes expected within 2 hours.
VIDP 211430Z 13006KT 4000 HZ SCT040 BKN100 30/24 Q1004 NOSIG
IFR 14:00:00 21-09-17
Altimeter:29.62 hg
Temp:30.0°c 86°f
Dew point:24.0°c 75°f
Wind:7 knots, 8.1 mph, 4 m/s, from 130°
Visibility:2.49 statute miles
10000(BKN) Broken
4000(SCT) Scattered
No significant weather changes expected within 2 hours.
VIDP 211400Z 13007KT 4000 HZ SCT040 BKN100 30/24 Q1003 NOSIG
TAF
TAF VIDP 211700Z 2118/2224 13007KT 3500 HZ BR FEW040 SCT100 BECMG 2121/2122 09005KT 2500 BR SCT030 BKN090 TEMPO 2123/2203 1500 TSRA SCT025 FEW030CB OVC080 BECMG 2205/2207 06006KT 4000 BR HZ TEMPO 2209/2215 1500 TSRA SCT030 FEW035CB OVC080 BECMG 2214/2216 10005KT 3000 HZ BR FEW040 SCT100
Forecast at VIDP
18:00 21-09-17 to 21:00 21-09-17
HZ BR
Wind:7 Knots from 130°
Visibility:2.17 statute miles
4000FEW A few
10000SCT Scattered
BECMG 21:00 21-09-17 to 05:00 22-09-17
BR
Wind:5 Knots from 90°
Visibility:1.55 statute miles
3000SCT Scattered
9000BKN Broken
TEMPO 23:00 21-09-17 to 03:00 22-09-17
TSRA
Visibility:0.93 statute miles
2500SCT Scattered
3000FEW A few
8000OVC Overcast
BECMG 05:00 22-09-17 to 14:00 22-09-17
BR HZ
Wind:6 Knots from 60°
Visibility:2.49 statute miles
3000SCT Scattered
9000BKN Broken
TEMPO 09:00 22-09-17 to 15:00 22-09-17
TSRA
Visibility:0.93 statute miles
3000SCT Scattered
3500FEW A few
8000OVC Overcast
BECMG 14:00 22-09-17 to 00:00 23-09-17
HZ BR
Wind:5 Knots from 100°
Visibility:1.86 statute miles
4000FEW A few
10000SCT Scattered